Atlantic - Newfoundland: Past 24 Hour Conditions

 

Stephenville Airport

10:30 PM NDT 25 October 2014
This table is a summary of hourly weather conditions for the past 24 hours.
Date / Time
(NDT)
Wind(knots) Conditions Visibility(km) Pressure(kPa) Air tempC) Relative humidity(%) Dew pointC)
25 October 2014
22:30 ENE 16 gust 26 Cloudy 24 100.0 6 81 3
21:30 ENE 17 gust 23 Cloudy 24 100.0 6 82 3
20:30 ENE 15 Cloudy 24 100.0 6 83 4
19:30 ENE 15 gust 21 Cloudy 19 99.9 6 84 4
18:30 ENE 15 gust 21 Cloudy 19 99.9 6 85 4
17:30 ENE 17 gust 23 Light Rain 13 99.9 7 87 5
16:30 ENE 16 gust 23 Light Rainshower 13 99.8 7 87 5
15:30 ENE 17 gust 22 Light Rainshower 16 99.8 7 86 5
14:30 ENE 18 gust 25 Cloudy 19 99.8 8 77 4
13:30 ENE 19 gust 25 Cloudy 24 99.8 8 76 4
12:30 ENE 19 gust 27 Cloudy 24 99.8 8 74 4
11:30 ENE 21 gust 28 Mostly Cloudy 24 99.8 8 74 4
10:30 ENE 20 gust 29 Mostly Cloudy 24 99.8 8 75 4
9:30 NE 17 gust 25 Mostly Cloudy 24 99.8 7 78 4
8:30 NE 16 gust 27 Mostly Cloudy 24 99.8 7 83 4
7:30 ENE 21 gust 32 Cloudy 24 99.8 7 80 4
6:30 ENE 16 gust 27 Partly Cloudy 24 99.8 7 81 4
5:30 ENE 18 gust 27 Mostly Cloudy 24 99.8 7 82 4
4:30 ENE 19 gust 25 Partly Cloudy 24 99.9 8 83 5
3:30 NE 18 gust 28 Partly Cloudy 24 99.9 8 83 5
2:30 ENE 16 gust 26 Mostly Cloudy 24 99.9 8 85 6
1:30 NE 19 gust 26 Light Rain 19 100.0 8 85 6
0:30 NE 18 gust 25 Light Rain 10 100.0 8 89 6
24 October 2014
23:30 NE 16 gust 26 Light Rain 10 100.1 8 91 7
22:30 NE 17 gust 23 Light Rain 10 100.1 9 91 7
 
Map of Atlantic - Newfoundland marine weather areas Southwestern Grand Banks - 44138 Banquereau - 44139 Tail of the Bank - 44140 Nickerson Bank - 44251 Northeast Burgeo Bank - 44255 Blanc-Sablon Airport Cap Whittle Chevery Natashquan Airport Heath Point Miscou Island Grand Étang Ingonish Beach North Mountain St.Paul Island J.A. Douglas McCurdy Sydney Airport Charlottetown Airport East Point North Cape Argentia Bonavista Burgeo Cape Race Corner Brook Daniel's Harbour Englee Ferolle Point La Scie Port aux Basques Rocky Harbour Sagona Island St. Anthony Airport St. John's Int'l Airport St. Lawrence Stephenville Airport Twillingate Winterland Wreckhouse Cartwright Airport Mary's Harbour Grates Cove Pool's Island Marticot Island Long Pond Îles de la Madeleine Airport
Legend: buoyBuoy land stationLand Station